ADDS METAR Data INFO
IDs: Format: Raw Decoded Include TAF

Data at: 1007 UTC 12 Dec 2017

KEAR 120956Z AUTO 28003KT 10SM OVC029 02/M02 A3036 RMK AO2 SLP293 T00171017 FZRANO
KEAR 120856Z AUTO 33003KT 10SM OVC027 01/M02 A3038 RMK AO2 SLP298 T00111017 58001 FZRANO
KEAR 120803Z AUTO 34004KT 10SM OVC029 01/M02 A3038 RMK AO2 FZRANO
KEAR 120756Z AUTO 32004KT 10SM OVC031 01/M02 A3038 RMK AO2 SLP298 T00111022 FZRANO
KEAR 120656Z AUTO 34007KT 10SM SCT033 01/M02 A3038 RMK AO2 SLP297 T00111017 FZRANO
KEAR 120556Z AUTO 35007KT 10SM OVC037 02/M02 A3038 RMK AO2 SLP296 T00171017 10044 20017 51007 FZRANO
KEAR 120456Z AUTO 34010KT 10SM OVC037 03/M02 A3037 RMK AO2 SLP293 T00281017 401060022
KEAR 120356Z AUTO 35014KT 10SM OVC033 03/M01 A3037 RMK AO2 SLP293 T00331011
KEAR 120256Z AUTO 35015KT 10SM BKN024 OVC034 03/M01 A3036 RMK AO2 SLP290 T00331011 51016
KEAR 120156Z AUTO 34014KT 10SM FEW029 OVC038 03/M02 A3035 RMK AO2 SLP290 T00331017
KEAR 120127Z AUTO 33011KT 10SM BKN028 OVC035 04/M02 A3034 RMK AO2
KEAR 120056Z AUTO 35013KT 10SM OVC032 04/M02 A3033 RMK AO2 SLP281 T00441017
KEAR 112356Z AUTO 35016KT 10SM OVC036 05/M02 A3031 RMK AO2 PK WND 35029/2259 SLP274 T00501022 10100 20050 53033
KEAR 112256Z AUTO 35026G30KT 10SM OVC038 06/M03 A3026 RMK AO2 PK WND 35031/2210 SLP259 T00561028
KEAR 112156Z AUTO 34026G33KT 10SM BKN040 BKN055 07/M02 A3023 RMK AO2 PK WND 34035/2057 SLP244 T00671022
KEAR 112056Z AUTO 34022G32KT 10SM OVC044 07/M03 A3020 RMK AO2 PK WND 34037/2034 SLP236 T00721028 53021
KEAR 111956Z AUTO 35030G35KT 10SM BKN050 09/M03 A3017 RMK AO2 PK WND 36038/1857 SLP222 T00891033
KEAR 111856Z AUTO 35024G34KT 10SM BKN055 09/M04 A3015 RMK AO2 PK WND 35039/1810 SLP215 T00941039
KEAR 111756Z AUTO 34026G34KT 10SM CLR 10/M06 A3014 RMK AO2 PK WND 34038/1706 SLP210 T01001056 10106 20022 51012
KEAR 111656Z AUTO 35029G37KT 9SM CLR 10/M07 A3014 RMK AO2 PK WND 34038/1629 SLP208 T01001067
KEAR 111628Z AUTO 34028G33KT 7SM FEW003 11/M08 A3012 RMK AO2 PK WND 34037/1615
KEAR 111616Z AUTO 33030G37KT 2 1/2SM HZ FEW003 11/M08 A3012 RMK AO2 PK WND 34037/1615 VIS 1 1/4V5
KEAR 111556Z AUTO 31012KT 10SM CLR 08/M08 A3012 RMK AO2 SLP204 T00831078 TSNO
KEAR 111456Z AUTO 29011KT 10SM CLR 06/M09 A3010 RMK AO2 SLP201 T00611089 53002
KEAR 111356Z AUTO 26010KT 10SM CLR 03/M09 A3009 RMK AO2 SLP198 T00281094
KEAR 111256Z AUTO 29011KT 10SM CLR 07/M09 A3010 RMK AO2 SLP199 T00671094
KEAR 111156Z AUTO 29009KT 10SM CLR 04/M10 A3010 RMK AO2 SLP196 T00391100 10072 20028 53002
KEAR 111056Z AUTO 30014KT 10SM CLR 03/M11 A3009 RMK AO2 SLP192 T00281111
KEAR 110956Z AUTO 29011KT 10SM CLR 04/M11 A3008 RMK AO2 SLP186 T00441111
KEAR 110856Z AUTO 29009KT 10SM CLR 05/M12 A3009 RMK AO2 SLP189 T00501117 58006
KEAR 110756Z AUTO 29010KT 10SM CLR 06/M12 A3010 RMK AO2 SLP190 T00561117
KEAR 110656Z AUTO 28010KT 10SM CLR 07/M12 A3010 RMK AO2 SLP191 T00671122
KEAR 110556Z AUTO 28009KT 10SM CLR 07/M12 A3011 RMK AO2 SLP195 T00671117 10117 20044 56010
KEAR 110456Z AUTO 26007KT 10SM CLR 07/M11 A3012 RMK AO2 SLP200 T00721111 401830017
KEAR 110356Z AUTO 28009KT 10SM CLR 07/M11 A3013 RMK AO2 SLP206 T00721111
KEAR 110256Z AUTO 28006KT 10SM CLR 06/M11 A3014 RMK AO2 SLP216 T00561106 58005
KEAR 110156Z AUTO 28008KT 10SM CLR 09/M11 A3015 RMK AO2 SLP217 T00891106
KEAR 110056Z AUTO 29007KT 10SM CLR 08/M10 A3016 RMK AO2 SLP222 T00781100
KEAR 102356Z AUTO 26005KT 10SM CLR 12/M10 A3016 RMK AO2 SLP217 T01171100 10183 20117 56004
KEAR 102256Z AUTO 28008KT 10SM CLR 14/M09 A3016 RMK AO2 SLP216 T01391094